createdAt,value
2023-03-17T00:01:09.822Z,62.75
2023-03-17T00:05:24.207Z,59.70
2023-03-17T00:09:28.890Z,60.00
2023-03-17T00:13:32.142Z,59.80
2023-03-17T00:17:36.568Z,59.10
2023-03-17T00:21:40.179Z,58.40
2023-03-17T00:33:53.999Z,59.50
2023-03-17T00:37:59.527Z,59.20
2023-03-17T00:42:04.442Z,60.20
2023-03-17T00:46:13.561Z,59.80
2023-03-17T00:50:18.772Z,59.45
2023-03-17T00:54:22.072Z,59.40
2023-03-17T00:58:28.884Z,59.42
2023-03-17T01:02:33.010Z,59.60
2023-03-17T01:06:35.996Z,58.90
2023-03-17T01:10:39.220Z,59.90
2023-03-17T01:14:43.738Z,59.93
2023-03-17T01:18:46.826Z,60.20
2023-03-17T01:22:50.567Z,60.20
2023-03-17T01:26:53.537Z,59.50
2023-03-17T01:30:57.921Z,60.05
2023-03-17T01:35:00.970Z,60.25
2023-03-17T01:39:05.466Z,59.90
2023-03-17T01:43:19.876Z,59.30
2023-03-17T01:47:26.622Z,60.10
2023-03-17T01:51:34.453Z,59.00
2023-03-17T01:55:37.950Z,58.90
2023-03-17T01:59:46.136Z,60.17
2023-03-17T02:03:52.016Z,60.07
2023-03-17T02:07:55.681Z,59.25
2023-03-17T02:12:01.192Z,59.33
2023-03-17T02:16:04.271Z,59.90
2023-03-17T02:20:45.736Z,59.75
2023-03-17T02:24:52.687Z,60.47
2023-03-17T02:28:55.749Z,58.85
2023-03-17T02:32:58.757Z,60.50
2023-03-17T02:37:01.810Z,59.83
2023-03-17T02:41:09.790Z,60.60
2023-03-17T02:45:14.346Z,60.37
2023-03-17T02:49:18.452Z,59.35
2023-03-17T02:53:23.405Z,60.60
2023-03-17T02:57:27.851Z,60.42
2023-03-17T03:01:30.970Z,58.40
2023-03-17T03:05:34.086Z,59.03
2023-03-17T03:09:37.403Z,60.33
2023-03-17T03:13:42.210Z,59.80
2023-03-17T03:17:45.570Z,59.63
2023-03-17T03:21:48.521Z,58.97
2023-03-17T03:25:51.534Z,60.15
2023-03-17T03:29:56.916Z,60.85
2023-03-17T03:33:59.857Z,58.57
2023-03-17T03:38:03.120Z,59.00
2023-03-17T03:42:07.057Z,59.80
2023-03-17T03:46:11.540Z,59.95
2023-03-17T03:50:14.939Z,59.50
2023-03-17T03:54:17.921Z,60.20
2023-03-17T03:58:21.014Z,59.80
2023-03-17T04:02:25.600Z,58.30
2023-03-17T04:06:28.778Z,59.85
2023-03-17T04:10:32.080Z,59.60
2023-03-17T04:14:35.378Z,60.63
2023-03-17T04:18:39.892Z,60.65
2023-03-17T04:22:43.500Z,60.63
2023-03-17T04:26:46.779Z,59.20
2023-03-17T04:30:49.795Z,56.10
2023-03-17T04:34:54.201Z,56.97
2023-03-17T04:38:57.148Z,56.40
2023-03-17T04:43:02.953Z,56.47
2023-03-17T04:47:06.683Z,56.50
2023-03-17T04:51:11.961Z,54.35
2023-03-17T04:55:15.007Z,56.10
2023-03-17T04:59:18.000Z,55.95
2023-03-17T05:03:28.649Z,55.50
2023-03-17T05:07:34.198Z,55.20
2023-03-17T05:11:37.362Z,55.10
2023-03-17T05:15:40.727Z,55.57
2023-03-17T05:19:43.898Z,55.77
2023-03-17T05:23:48.234Z,55.50
2023-03-17T05:27:51.374Z,55.55
2023-03-17T05:31:56.459Z,55.15
2023-03-17T05:35:59.544Z,54.80
2023-03-17T05:40:04.038Z,54.80
2023-03-17T05:44:07.116Z,55.30
2023-03-17T05:48:10.099Z,54.70
2023-03-17T05:52:13.157Z,54.50
2023-03-17T05:56:17.510Z,54.80
2023-03-17T06:00:21.793Z,55.10
2023-03-17T06:04:24.737Z,55.25
2023-03-17T06:08:28.748Z,55.03
2023-03-17T06:12:33.111Z,55.63
2023-03-17T06:16:36.751Z,55.50
2023-03-17T06:20:39.776Z,55.60
2023-03-17T06:24:42.752Z,54.65
2023-03-17T06:28:47.124Z,55.30
2023-03-17T06:32:50.339Z,54.60
2023-03-17T06:36:54.042Z,55.10
2023-03-17T06:40:57.967Z,54.20
2023-03-17T06:45:02.360Z,55.30
2023-03-17T06:49:05.624Z,54.33
2023-03-17T06:53:08.817Z,54.30
2023-03-17T06:57:12.489Z,54.30
2023-03-17T07:01:17.833Z,56.45
2023-03-17T07:05:20.954Z,54.20
2023-03-17T07:09:23.942Z,54.83
2023-03-17T07:13:27.325Z,54.95
2023-03-17T07:17:31.790Z,54.07
2023-03-17T07:21:34.826Z,54.20
2023-03-17T07:25:39.224Z,54.80
2023-03-17T07:29:42.205Z,55.17
2023-03-17T07:33:47.003Z,54.28
2023-03-17T07:37:50.128Z,60.20
2023-03-17T07:41:55.369Z,59.00
2023-03-17T07:45:59.056Z,59.40
2023-03-17T07:50:03.675Z,60.47
2023-03-17T07:54:06.731Z,57.30
2023-03-17T07:58:10.605Z,59.70
2023-03-17T08:02:16.885Z,59.90
2023-03-17T08:06:21.685Z,58.75
2023-03-17T08:10:24.705Z,61.60
2023-03-17T08:14:29.821Z,59.28
2023-03-17T08:18:32.822Z,60.05
2023-03-17T08:22:37.273Z,59.95
2023-03-17T08:26:40.333Z,58.60
2023-03-17T08:30:44.774Z,60.05
2023-03-17T08:34:48.485Z,60.30
2023-03-17T08:38:53.388Z,59.55
2023-03-17T08:43:05.454Z,59.03
2023-03-17T08:47:08.685Z,59.80
2023-03-17T08:51:12.483Z,60.40
2023-03-17T08:55:17.783Z,60.70
2023-03-17T08:59:20.787Z,59.50
2023-03-17T09:03:23.753Z,60.05
2023-03-17T09:07:26.791Z,59.25
2023-03-17T09:11:32.739Z,60.90
2023-03-17T09:15:36.781Z,60.60
2023-03-17T09:19:40.484Z,61.90
2023-03-17T09:23:44.278Z,61.00
